地図

経路データ

SID SEASON NUMBER BASIN SUBBASIN NAME ISO_TIME NATURE LAT LON WMO_WIND WMO_PRES WMO_AGENCY TRACK_TYPE DIST2LAND LANDFALL IFLAG USA_AGENCY USA_ATCF_ID USA_LAT USA_LON USA_RECORD USA_STATUS USA_WIND USA_PRES USA_SSHS USA_R34_NE USA_R34_SE USA_R34_SW USA_R34_NW USA_R50_NE USA_R50_SE USA_R50_SW USA_R50_NW USA_R64_NE USA_R64_SE USA_R64_SW USA_R64_NW USA_POCI USA_ROCI USA_RMW USA_EYE TOKYO_LAT TOKYO_LON TOKYO_GRADE TOKYO_WIND TOKYO_PRES TOKYO_R50_DIR TOKYO_R50_LONG TOKYO_R50_SHORT TOKYO_R30_DIR TOKYO_R30_LONG TOKYO_R30_SHORT TOKYO_LAND CMA_LAT CMA_LON CMA_CAT CMA_WIND CMA_PRES HKO_LAT HKO_LON HKO_CAT HKO_WIND HKO_PRES NEWDELHI_LAT NEWDELHI_LON NEWDELHI_GRADE NEWDELHI_WIND NEWDELHI_PRES NEWDELHI_CI NEWDELHI_DP NEWDELHI_POCI REUNION_LAT REUNION_LON REUNION_TYPE REUNION_WIND REUNION_PRES REUNION_TNUM REUNION_CI REUNION_RMW REUNION_R34_NE REUNION_R34_SE REUNION_R34_SW REUNION_R34_NW REUNION_R50_NE REUNION_R50_SE REUNION_R50_SW REUNION_R50_NW REUNION_R64_NE REUNION_R64_SE REUNION_R64_SW REUNION_R64_NW BOM_LAT BOM_LON BOM_TYPE BOM_WIND BOM_PRES BOM_TNUM BOM_CI BOM_RMW BOM_R34_NE BOM_R34_SE BOM_R34_SW BOM_R34_NW BOM_R50_NE BOM_R50_SE BOM_R50_SW BOM_R50_NW BOM_R64_NE BOM_R64_SE BOM_R64_SW BOM_R64_NW BOM_ROCI BOM_POCI BOM_EYE BOM_POS_METHOD BOM_PRES_METHOD NADI_LAT NADI_LON NADI_CAT NADI_WIND NADI_PRES WELLINGTON_LAT WELLINGTON_LON WELLINGTON_WIND WELLINGTON_PRES DS824_LAT DS824_LON DS824_STAGE DS824_WIND DS824_PRES TD9636_LAT TD9636_LON TD9636_STAGE TD9636_WIND TD9636_PRES TD9635_LAT TD9635_LON TD9635_WIND TD9635_PRES TD9635_ROCI NEUMANN_LAT NEUMANN_LON NEUMANN_CLASS NEUMANN_WIND NEUMANN_PRES MLC_LAT MLC_LON MLC_CLASS MLC_WIND MLC_PRES USA_GUST BOM_GUST BOM_GUST_PER REUNION_GUST REUNION_GUST_PER USA_SEAHGT USA_SEARAD_NE USA_SEARAD_SE USA_SEARAD_SW USA_SEARAD_NW STORM_SPEED STORM_DIR
1973320N05142 1973 124 WP MM VERA 1973-11-16 00:00:00 TS 5.00000 142.000 main 845 845 __O___________ -1 5.00000 142.000 1 23 1003 19 328
1973320N05142 1973 124 WP MM VERA 1973-11-16 03:00:00 TS 5.79013 141.510 main 906 906 __P___________ -1 5.79013 141.510 1 23 1003 18 326
1973320N05142 1973 124 WP MM VERA 1973-11-16 06:00:00 TS 6.50000 141.000 main 959 959 __O___________ -1 6.50000 141.000 1 23 1003 17 320
1973320N05142 1973 124 WP MM VERA 1973-11-16 09:00:00 TS 7.06732 140.445 main 1005 1002 __P___________ -1 7.06732 140.445 1 21 1004 16 310
1973320N05142 1973 124 WP MM VERA 1973-11-16 12:00:00 TS 7.50000 139.800 main 1025 1021 __O___________ -1 7.50000 139.800 0 19 1005 16 300
1973320N05142 1973 124 WP MM VERA 1973-11-16 15:00:00 TS 7.88999 139.030 main 1033 1026 __P___________ -1 7.88999 139.030 0 19 1005 17 291
1973320N05142 1973 124 WP MM VERA 1973-11-16 18:00:00 TS 8.10000 138.200 main 1027 1006 __O___________ -1 8.10000 138.200 0 19 1005 17 278
1973320N05142 1973 124 WP MM VERA 1973-11-16 21:00:00 TS 8.12003 137.362 main 1006 970 __P___________ -1 8.12003 137.362 0 19 1005 16 263
1973320N05142 1973 124 WP MM VERA 1973-11-17 00:00:00 TS 7.90000 136.600 main 970 920 __O___________ -1 7.90000 136.600 0 19 1005 15 242
1973320N05142 1973 124 WP MM VERA 1973-11-17 03:00:00 TS 7.42965 136.042 main 908 851 __P___________ -1 7.42965 136.042 0 19 1005 15 227
1973320N05142 1973 124 WP MM VERA 1973-11-17 06:00:00 TS 6.90000 135.500 main 851 798 __O___________ -1 6.90000 135.500 0 19 1005 16 233
1973320N05142 1973 124 WP MM VERA 1973-11-17 09:00:00 TS 6.49498 134.787 main 798 726 __P___________ -1 6.49498 134.787 0 19 1005 16 248
1973320N05142 1973 124 WP MM VERA 1973-11-17 12:00:00 TS 6.30000 134.000 main 726 663 __O___________ -1 6.30000 134.000 0 19 1005 16 267
1973320N05142 1973 124 WP MM VERA 1973-11-17 15:00:00 TS 6.40262 133.155 main 663 623 __P___________ -1 6.40262 133.155 0 19 1005 16 284
1973320N05142 1973 124 WP MM VERA 1973-11-17 18:00:00 TS 6.70000 132.400 main 624 586 __O___________ -1 6.70000 132.400 0 19 1005 14 297
1973320N05142 1973 124 WP MM VERA 1973-11-17 21:00:00 TS 7.04233 131.868 main 586 540 __P___________ -1 7.04233 131.868 0 21 1003 11 308
1973320N05142 1973 124 WP MM VERA 1973-11-18 00:00:00 TS 7.40000 131.500 main 540 507 __O___________ -1 7.40000 131.500 1 23 1002 9 313
1973320N05142 1973 124 WP MM VERA 1973-11-18 03:00:00 TS 7.64993 131.212 main 507 463 __P___________ -1 7.64993 131.212 1 23 1002 9 307
1973320N05142 1973 124 WP MM VERA 1973-11-18 06:00:00 TS 7.92000 130.800 1002 tokyo main 463 443 _OO___________ -1 8.00000 130.000 2 1002 0 0 0 7.90000 131.000 1 23 1002 9 313
1973320N05142 1973 124 WP MM VERA 1973-11-18 09:00:00 TS 8.27247 130.550 main 435 428 _PP___________ -1 8.33251 130.035 2 1002 0 0 8.24245 130.807 1 23 1002 9 328
1973320N05142 1973 124 WP MM VERA 1973-11-18 12:00:00 TS 8.64286 130.343 1002 tokyo main 419 408 _OO___________ -1 8.70000 130.000 2 1002 0 0 0 8.60000 130.600 1 23 1002 9 328
1973320N05142 1973 124 WP MM VERA 1973-11-18 15:00:00 TS 9.01126 130.076 main 411 388 _PP___________ -1 9.11499 129.845 2 1002 0 0 8.90752 130.307 1 23 1002 9 323
1973320N05142 1973 124 WP MM VERA 1973-11-18 18:00:00 TS 9.35000 129.800 1002 tokyo main 390 373 _OO___________ -1 9.50000 129.600 2 1002 0 0 0 9.20000 130.000 1 23 1002 8 322
1973320N05142 1973 124 WP MM VERA 1973-11-18 21:00:00 TS 9.64361 129.566 main 373 327 _PP___________ -1 9.79484 129.360 2 1002 0 0 9.49238 129.772 1 26 1001 9 307
1973320N05142 1973 124 WP MM VERA 1973-11-19 00:00:00 TS 9.86667 129.100 1002 tokyo main 327 271 OOO______OOO__ jtwc_wp WP231973 9.80000 128.800 30 -1 10.0000 129.000 2 1002 0 0 0 9.80000 129.500 1 29 1000 9.80000 128.800 TC 30 9.80000 128.800 1 30 9.80000 128.800 30 1002 360 12 294
1973320N05142 1973 124 WP MM VERA 1973-11-19 03:00:00 TS 10.1198 128.480 main 271 223 PPP______PPP__ WP231973 10.0927 128.193 30 -1 10.1077 128.422 2 1002 0 0 10.1649 129.103 1 29 1000 10.0927 128.193 TC 30 10.1351 128.215 1 30 10.0927 128.193 30 1002 360 13 293
1973320N05142 1973 124 WP MM VERA 1973-11-19 06:00:00 TS 10.3884 127.845 1002 tokyo main 221 167 OOO______OPO__ jtwc_wp WP231973 10.4000 127.600 30 -1 10.2000 127.800 2 1002 0 0 0 10.5000 128.600 1 29 1000 10.4000 127.600 TC 30 10.4558 127.634 1 30 10.4000 127.600 30 1002 360 13 294
1973320N05142 1973 124 WP MM VERA 1973-11-19 09:00:00 TS 10.6668 127.253 main 167 98 PPP______PPP__ WP231973 10.7224 127.035 30 -1 10.3548 127.327 2 1001 0 0 10.7300 128.022 1 29 1000 10.7224 127.035 TC 30 10.7486 127.060 1 30 10.7224 127.035 30 1002 360 12 295
1973320N05142 1973 124 WP MM VERA 1973-11-19 12:00:00 TS 10.9040 126.716 1000 tokyo main 98 45 OOOO_____OOO__ jtwc_wp WP231973 11.0000 126.500 30 -1 10.6000 126.900 2 1000 0 0 0 10.9000 127.400 1 29 1000 10.6000 126.700 TD 25 1002 11.0000 126.500 TC 30 11.0000 126.500 1 30 11.0000 126.500 30 1002 360 11 294
1973320N05142 1973 124 WP MM VERA 1973-11-19 15:00:00 TS 11.1324 126.199 main 45 15 PPPP_____PPP__ WP231973 11.1799 125.985 30 -1 10.9849 126.458 2 1000 0 0 11.0799 126.800 1 29 1000 11.1127 126.238 TD 25 1001 11.1799 125.985 TC 30 11.1995 125.959 1 30 11.1799 125.985 30 1001 360 11 293
1973320N05142 1973 124 WP MM VERA 1973-11-19 18:00:00 TS 11.3292 125.704 1000 tokyo main 15 0 OOOO_____OPO__ jtwc_wp WP231973 11.3000 125.500 30 -1 11.4000 126.000 2 1000 0 0 0 11.2000 126.200 1 29 1000 11.5000 125.800 TD 25 1001 11.3000 125.500 TC 30 11.3474 125.452 1 30 11.3000 125.500 30 1001 360 10 290
1973320N05142 1973 124 WP MM VERA 1973-11-19 21:00:00 TS 11.4881 125.216 main 0 0 PPPP_____PPP__ WP231973 11.4300 125.013 30 -1 11.7899 125.508 2 998 0 0 11.2150 125.570 1 29 1000 11.6749 125.400 TD 25 1000 11.4300 125.013 TC 30 11.4465 124.994 1 30 11.4300 125.013 30 1000 360 9 284
1973320N05142 1973 124 WP MM VERA 1973-11-20 00:00:00 TS 11.5571 124.771 996 tokyo main 11 0 OOOO_____OOO__ jtwc_wp WP231973 11.5000 124.600 30 -1 12.0000 125.000 2 996 0 0 0 11.2000 125.000 1 29 1000 11.7000 125.000 TD 25 1000 11.5000 124.600 TC 30 11.5000 124.600 1 30 11.5000 124.600 30 1000 360 8 273
1973320N05142 1973 124 WP MM VERA 1973-11-20 03:00:00 TS 11.5283 124.404 main 0 0 PPPP_____PPP__ WP231973 11.4649 124.320 30 -1 11.8674 124.492 2 996 0 0 11.2499 124.548 1 29 999 11.6725 124.542 TD 25 1000 11.4649 124.320 TC 30 11.5136 124.285 1 30 11.4649 124.320 30 999 390 7 261
1973320N05142 1973 124 WP MM VERA 1973-11-20 06:00:00 TS 11.4553 124.090 996 tokyo main 22 22 OOOO_____OPO__ jtwc_wp WP231973 11.4000 124.100 30 -1 11.6000 124.000 2 996 0 0 0 11.3000 124.200 1 29 998 11.6000 124.100 TD 25 1000 11.4000 124.100 TC 30 11.4870 124.032 1 30 11.4000 124.100 30 998 420 6 259
1973320N05142 1973 124 WP MM VERA 1973-11-20 09:00:00 TS 11.4138 123.790 main 24 24 PPPP_____PPP__ WP231973 11.3925 123.850 30 -1 11.4200 123.512 2 996 0 0 11.3074 123.912 1 29 998 11.5499 123.743 TD 25 999 11.3925 123.850 TC 30 11.4418 123.813 1 30 11.3925 123.850 30 997 450 6 263
1973320N05142 1973 124 WP MM VERA 1973-11-20 12:00:00 TS 11.3857 123.514 996 tokyo main 43 21 OOOO_____OOO__ jtwc_wp WP231973 11.4000 123.600 30 -1 11.3000 123.100 2 996 0 0 0 11.3000 123.700 1 29 998 11.5000 123.400 TD 25 999 11.4000 123.600 TC 30 11.4000 123.600 1 30 11.4000 123.600 30 996 480 5 266
1973320N05142 1973 124 WP MM VERA 1973-11-20 15:00:00 TS 11.3721 123.249 main 10 0 PPPP_____PPP__ WP231973 11.4000 123.350 30 -1 11.2699 122.798 2 996 0 0 11.2925 123.542 1 29 998 11.4500 122.993 TD 25 999 11.4000 123.350 TC 30 11.3927 123.362 1 30 11.4000 123.350 30 996 480 5 268
1973320N05142 1973 124 WP MM VERA 1973-11-20 18:00:00 TS 11.3703 123.003 996 tokyo main 0 0 OOOO_____OPO__ jtwc_wp WP231973 11.4000 123.100 30 -1 11.3000 122.600 2 996 0 0 0 11.3000 123.400 1 29 998 11.4000 122.600 TD 25 999 11.4000 123.100 TC 30 11.3923 123.123 1 30 11.4000 123.100 30 996 480 5 270
1973320N05142 1973 124 WP MM VERA 1973-11-20 21:00:00 TS 11.3758 122.772 main 0 0 PPPP_____PPP__ WP231973 11.4000 122.858 30 -1 11.3425 122.470 2 996 0 0 11.3500 123.208 1 29 997 11.3424 122.285 TD 25 998 11.4000 122.858 TC 30 11.3958 122.872 1 30 11.4000 122.858 30 996 450 5 272
1973320N05142 1973 124 WP MM VERA 1973-11-21 00:00:00 TS 11.3857 122.543 996 tokyo main 0 0 OOOO_____OOO__ jtwc_wp WP231973 11.4000 122.600 30 -1 11.4000 122.400 2 996 0 0 0 11.4000 123.000 1 29 997 11.3000 122.000 TD 25 998 11.4000 122.600 TC 30 11.4000 122.600 1 30 11.4000 122.600 30 996 420 5 272
1973320N05142 1973 124 WP MM VERA 1973-11-21 03:00:00 TS 11.3895 122.296 main 0 0 PPPP_____PPP__ WP231973 11.4000 122.315 30 -1 11.4500 122.342 2 996 0 0 11.4000 122.800 1 29 997 11.2850 121.685 TD 25 998 11.4000 122.315 TC 30 11.3919 122.296 1 30 11.4000 122.315 30 996 420 5 271
1973320N05142 1973 124 WP MM VERA 1973-11-21 06:00:00 TS 11.3979 122.039 996 tokyo main 10 10 OOOO_____OPO__ jtwc_wp WP231973 11.4000 122.000 30 -1 11.5000 122.300 2 996 0 0 0 11.4000 122.600 1 29 997 11.3000 121.400 TD 25 998 11.4000 122.000 TC 30 11.3850 121.972 1 30 11.4000 122.000 30 996 420 5 272
1973320N05142 1973 124 WP MM VERA 1973-11-21 09:00:00 TS 11.4086 121.782 main 32 32 PPPP_____PPP__ WP231973 11.3925 121.657 30 -1 11.5275 122.257 2 996 0 0 11.4350 122.407 1 29 997 11.3349 121.200 TD 25 997 11.3925 121.657 TC 30 11.3856 121.637 1 30 11.3925 121.657 30 996 450 5 275
1973320N05142 1973 124 WP MM VERA 1973-11-21 12:00:00 TS 11.4429 121.514 996 tokyo main 55 46 OOOO_____OOO__ jtwc_wp WP231973 11.4000 121.300 30 -1 11.6000 122.200 2 996 0 0 0 11.5000 122.200 1 29 997 11.4000 121.000 TD 25 997 11.4000 121.300 TC 30 11.4000 121.300 1 30 11.4000 121.300 30 996 480 6 281
1973320N05142 1973 124 WP MM VERA 1973-11-21 15:00:00 TS 11.5135 121.229 main 73 67 PPPP_____PPP__ WP231973 11.4425 120.943 30 -1 11.7700 122.130 2 996 0 0 11.5850 121.965 1 29 997 11.4925 120.708 TD 25 996 11.4425 120.943 TC 30 11.4193 120.971 1 31 11.4425 120.943 30 996 510 6 286
1973320N05142 1973 124 WP MM VERA 1973-11-21 18:00:00 TS 11.6078 120.935 996 tokyo main 70 64 OOOO_____OPO__ jtwc_wp WP231973 11.5000 120.600 30 -1 12.0000 122.000 2 996 0 0 0 11.7000 121.700 1 29 997 11.6000 120.400 TD 25 996 11.5000 120.600 TC 30 11.4549 120.642 1 32 11.5000 120.600 30 996 540 6 289
1973320N05142 1973 124 WP MM VERA 1973-11-21 21:00:00 TS 11.7036 120.653 main 70 70 PPPP_____PPP__ WP231973 11.5349 120.292 32 -1 12.2724 121.810 2 996 0 0 11.8349 121.422 1 29 996 11.7000 120.142 TD 27 996 11.5349 120.292 TC 32 11.5131 120.318 1 33 11.5349 120.292 32 996 570 6 290
1973320N05142 1973 124 WP MM VERA 1973-11-22 00:00:00 TS 11.8143 120.357 996 tokyo main 88 80 OOOO_____OOO__ jtwc_wp WP231973 11.6000 120.000 35 0 12.5000 121.500 2 996 0 0 0 12.0000 121.100 1 29 996 11.8000 119.900 TD 30 996 11.6000 120.000 TC 35 11.6000 120.000 2 35 11.6000 120.000 35 996 600 7 291
1973320N05142 1973 124 WP MM VERA 1973-11-22 03:00:00 TS 11.9421 120.029 main 80 80 PPPP_____PPP__ WP231973 11.7350 119.700 35 0 12.5725 121.045 2 995 0 0 12.1999 120.730 1 29 996 11.9000 119.642 TD 30 995 11.7350 119.700 TC 35 11.7171 119.689 2 36 11.7350 119.700 35 995 630 7 292
1973320N05142 1973 124 WP MM VERA 1973-11-22 06:00:00 TS 12.0803 119.684 994 tokyo main 90 89 OOOO_____OPO__ jtwc_wp WP231973 11.9000 119.400 35 0 12.6000 120.500 2 994 0 0 0 12.4000 120.300 1 29 996 12.0000 119.400 TD 30 995 11.9000 119.400 TC 35 11.8624 119.385 2 37 11.9000 119.400 35 995 660 7 292
1973320N05142 1973 124 WP MM VERA 1973-11-22 09:00:00 TS 12.2138 119.336 main 103 103 PPPP_____PPP__ WP231973 12.0425 119.092 37 0 12.6925 119.950 2 994 0 0 12.5649 119.822 1 33 995 12.0849 119.215 TD 32 995 12.0425 119.092 TC 37 12.0265 119.089 2 38 12.0425 119.092 37 995 660 7 292
1973320N05142 1973 124 WP MM VERA 1973-11-22 12:00:00 TS 12.3571 118.986 994 tokyo main 134 134 OOOO_____OOO__ jtwc_wp WP231973 12.2000 118.800 40 0 12.8000 119.400 9 994 0 0 0 12.7000 119.300 2 38 995 12.2000 119.000 TS 35 995 12.2000 118.800 TC 40 12.2000 118.800 2 40 12.2000 118.800 40 995 660 8 294
1973320N05142 1973 124 WP MM VERA 1973-11-22 15:00:00 TS 12.5239 118.634 main 166 166 PPPP_____PPP__ WP231973 12.3999 118.550 40 0 12.9074 118.893 9 994 0 0 12.8076 118.720 2 38 995 12.3851 118.665 TS 35 995 12.3999 118.550 TC 40 12.3677 118.514 2 41 12.3999 118.550 40 995 630 8 296
1973320N05142 1973 124 WP MM VERA 1973-11-22 18:00:00 TS 12.6918 118.291 994 tokyo main 204 204 OOOO_____OPO__ jtwc_wp WP231973 12.6000 118.300 40 0 13.0000 118.400 9 994 0 0 0 12.9000 118.200 2 38 995 12.6000 118.300 TS 35 995 12.6000 118.300 TC 40 12.5424 118.235 2 42 12.6000 118.300 40 995 600 7 295
1973320N05142 1973 124 WP MM VERA 1973-11-22 21:00:00 TS 12.8401 117.943 main 241 241 PPPP_____PPP__ WP231973 12.7575 117.992 42 0 13.0652 117.833 9 994 0 0 13.0074 117.832 2 43 995 12.8149 117.993 TS 37 995 12.7575 117.992 TC 42 12.7209 117.964 2 43 12.7575 117.992 42 995 540 7 294
1973320N05142 1973 124 WP MM VERA 1973-11-23 00:00:00 TS 12.9714 117.643 994 tokyo main 280 280 OOOO_____OOO__ jtwc_wp WP231973 12.9000 117.700 45 0 13.1000 117.400 9 994 0 0 0 13.1000 117.600 3 48 995 13.0000 117.700 TS 40 995 12.9000 117.700 TC 45 12.9000 117.700 2 45 12.9000 117.700 45 995 480 5 296
1973320N05142 1973 124 WP MM VERA 1973-11-23 03:00:00 TS 13.0749 117.449 main 304 304 PPPP_____PPP__ WP231973 13.0424 117.500 45 0 13.0848 117.312 9 994 0 0 13.1424 117.485 3 48 993 13.1075 117.385 TS 42 994 13.0424 117.500 TC 45 13.0626 117.459 2 46 13.0424 117.500 45 994 450 4 301
1973320N05142 1973 124 WP MM VERA 1973-11-23 06:00:00 TS 13.1896 117.275 994 tokyo main 319 319 OOOO_____OPO__ jtwc_wp WP231973 13.2000 117.300 45 0 13.1000 117.300 9 994 0 0 0 13.2000 117.400 3 48 992 13.2000 117.100 TS 45 994 13.2000 117.300 TC 45 13.2272 117.222 2 47 13.2000 117.300 45 994 420 5 304
1973320N05142 1973 124 WP MM VERA 1973-11-23 09:00:00 TS 13.3465 117.035 main 351 351 PPPP_____PPP__ WP231973 13.3850 117.015 47 0 13.2050 117.087 9 993 0 0 13.3199 117.237 3 53 991 13.3424 116.900 TS 47 993 13.3850 117.015 TC 47 13.4032 116.974 2 48 13.3850 117.015 47 993 420 6 305
1973320N05142 1973 124 WP MM VERA 1973-11-23 12:00:00 TS 13.5429 116.757 992 tokyo main 378 378 OOOO_____OOO__ jtwc_wp WP231973 13.6000 116.700 50 0 13.4000 116.800 9 992 0 0 0 13.5000 117.000 3 58 990 13.5000 116.700 STS 50 992 13.6000 116.700 TC 50 13.6000 116.700 2 50 13.6000 116.700 50 992 420 7 307
1973320N05142 1973 124 WP MM VERA 1973-11-23 15:00:00 TS 13.7691 116.467 main 403 403 PPPP_____PPP__ WP231973 13.8424 116.415 50 0 13.6775 116.515 9 991 0 0 13.7200 116.687 3 58 990 13.6350 116.430 STS 50 991 13.8424 116.415 TC 50 13.8243 116.391 2 50 13.8424 116.415 50 991 360 8 309
1973320N05142 1973 124 WP MM VERA 1973-11-23 18:00:00 TS 14.0243 116.136 990 tokyo main 437 433 OOOO_____OPO__ jtwc_wp WP231973 14.1000 116.100 50 0 14.0000 116.200 9 990 0 0 0 14.0000 116.300 3 58 990 13.8000 116.100 STS 50 991 14.1000 116.100 TC 50 14.0698 116.052 2 50 14.1000 116.100 50 991 300 9 307
1973320N05142 1973 124 WP MM VERA 1973-11-23 21:00:00 TS 14.2886 115.754 main 457 457 PPPP_____PPP__ WP231973 14.3425 115.715 50 0 14.3000 115.857 9 990 0 0 14.3426 115.850 3 58 990 14.0199 115.737 STS 50 991 14.3425 115.715 TC 50 14.3305 115.688 2 50 14.3425 115.715 50 991 270 9 305
1973320N05142 1973 124 WP MM VERA 1973-11-24 00:00:00 TS 14.5714 115.343 990 tokyo main 497 497 OOOO_____OOO__ jtwc_wp WP231973 14.6000 115.300 50 0 14.6000 115.500 9 990 0 0 0 14.7000 115.400 3 58 990 14.3000 115.300 STS 50 991 14.6000 115.300 TC 50 14.6000 115.300 2 50 14.6000 115.300 50 991 240 10 307
1973320N05142 1973 124 WP MM VERA 1973-11-24 03:00:00 TS 14.8796 114.931 main 529 529 PPPP_____PPP__ WP231973 14.8999 114.907 50 0 14.9150 115.143 9 992 0 0 15.0149 115.035 3 58 990 14.6352 114.750 STS 50 992 14.8999 114.907 TC 50 14.8924 114.869 2 50 14.8999 114.907 50 992 210 10 307
1973320N05142 1973 124 WP MM VERA 1973-11-24 06:00:00 TS 15.1840 114.517 994 tokyo main 564 531 OOOO_____OPO__ jtwc_wp WP231973 15.2000 114.500 50 0 15.2000 114.800 9 994 0 0 0 15.3000 114.700 3 58 990 15.0000 114.200 STS 50 993 15.2000 114.500 TC 50 15.1879 114.421 2 50 15.2000 114.500 50 994 180 10 306
1973320N05142 1973 124 WP MM VERA 1973-11-24 09:00:00 TS 15.4674 114.095 main 531 485 PPPP_____PPP__ WP231973 15.4801 114.028 50 0 15.4149 114.492 9 995 0 0 15.5724 114.357 3 58 990 15.3799 113.748 STS 47 994 15.4801 114.028 TC 50 15.4644 113.987 2 50 15.4801 114.028 50 995 180 9 304
1973320N05142 1973 124 WP MM VERA 1973-11-24 12:00:00 TS 15.7000 113.714 996 tokyo main 485 454 OOOO_____OOO__ jtwc_wp WP231973 15.7000 113.600 50 0 15.6000 114.200 9 996 0 0 0 15.8000 114.000 3 58 990 15.7000 113.400 TS 45 996 15.7000 113.600 TC 50 15.7000 113.600 2 50 15.7000 113.600 50 996 180 8 300
1973320N05142 1973 124 WP MM VERA 1973-11-24 15:00:00 TS 15.8527 113.413 main 446 423 PPPP_____PPP__ WP231973 15.8148 113.320 47 0 15.7999 113.907 9 996 0 0 15.9575 113.592 3 53 991 15.8949 113.155 TS 42 996 15.8148 113.320 TC 47 15.8718 113.279 2 48 15.8148 113.320 47 996 180 6 297
1973320N05142 1973 124 WP MM VERA 1973-11-24 18:00:00 TS 15.9717 113.158 996 tokyo main 423 393 OOOO_____OPO__ jtwc_wp WP231973 15.9000 113.100 45 0 16.0000 113.600 9 996 0 0 0 16.1000 113.200 3 48 992 16.0000 113.000 TS 40 996 15.9000 113.100 TC 45 16.0021 113.009 2 47 15.9000 113.100 45 996 180 6 298
1973320N05142 1973 124 WP MM VERA 1973-11-24 21:00:00 TS 16.1130 112.907 main 393 371 PPPP_____PPP__ WP231973 16.0500 112.828 45 0 16.2149 113.273 9 996 0 0 16.2999 112.877 3 48 992 16.0198 112.930 TS 40 996 16.0500 112.828 TC 45 16.1063 112.785 2 46 16.0500 112.828 45 996 180 5 301
1973320N05142 1973 124 WP MM VERA 1973-11-25 00:00:00 TS 16.2571 112.671 996 tokyo main 362 340 OOOO_____OOO__ jtwc_wp WP231973 16.2000 112.600 45 0 16.4000 112.900 9 996 0 0 0 16.5000 112.600 3 48 992 16.1000 112.800 TS 40 996 16.2000 112.600 TC 45 16.2000 112.600 2 45 16.2000 112.600 45 996 180 5 304
1973320N05142 1973 124 WP MM VERA 1973-11-25 03:00:00 TS 16.4052 112.449 main 333 311 PPPP_____PPP__ WP231973 16.3074 112.485 40 0 16.4999 112.472 9 998 0 0 16.6649 112.342 3 43 993 16.4501 112.446 TS 35 997 16.3074 112.485 TC 40 16.2989 112.427 2 41 16.3074 112.485 40 997 150 5 304
1973320N05142 1973 124 WP MM VERA 1973-11-25 06:00:00 TS 16.5418 112.227 1000 tokyo main 311 289 OOOO_____OPO__ jtwc_wp WP231973 16.4000 112.400 35 0 16.6000 112.000 9 1000 0 0 0 16.8000 112.100 2 38 995 16.8000 112.000 TD 30 998 16.4000 112.400 TC 35 16.3923 112.290 2 37 16.4000 112.400 35 998 120 5 298
1973320N05142 1973 124 WP MM VERA 1973-11-25 09:00:00 TS 16.6443 111.971 main 289 268 PPPP_____PPP__ WP231973 16.4925 112.250 32 -1 16.7702 111.448 9 1000 0 0 16.9000 111.827 2 38 996 16.8725 111.592 TD 27 999 16.4925 112.250 TC 32 16.4896 112.183 2 33 16.4925 112.250 32 999 120 5 295
1973320N05142 1973 124 WP MM VERA 1973-11-25 12:00:00 TS 16.7571 111.743 1000 tokyo main 253 238 OOOO_____OOO__ jtwc_wp WP231973 16.6000 112.100 30 -1 17.0000 111.000 9 1000 0 0 0 17.0000 111.600 2 38 998 16.9000 111.200 TD 25 1000 16.6000 112.100 TC 30 16.6000 112.100 1 30 16.6000 112.100 30 1000 120 5 305
1973320N05142 1973 124 WP MM VERA 1973-11-25 15:00:00 TS 16.9234 111.559 main 238 213 PPPP_____PPP__ WP231973 16.7425 111.978 27 -1 17.2848 110.795 9 1003 0 0 17.1425 111.448 2 33 1000 17.0776 110.753 TD 25 1002 16.7425 111.978 TC 27 16.7315 111.988 1 28 16.7425 111.978 27 1002 90 4 324
1973320N05142 1973 124 WP MM VERA 1973-11-25 18:00:00 TS 17.1110 111.472 1006 tokyo main 213 195 OOOO_____OPO__ jtwc_wp WP231973 16.9000 111.900 25 -1 17.6000 110.800 2 1006 0 0 0 17.3000 111.400 1 29 1002 17.3000 110.500 TD 25 1005 16.9000 111.900 TC 25 16.8774 111.903 1 27 16.9000 111.900 25 1004 60 4 355
1973320N05142 1973 124 WP MM VERA 1973-11-25 21:00:00 TS 17.2992 111.511 main 195 186 PPPP_____PPP__ WP231973 17.0425 111.877 25 -1 17.9526 110.962 2 1008 0 0 17.4575 111.455 1 29 1002 17.5225 110.660 TD 25 1007 17.0425 111.877 TC 25 17.0346 111.866 1 26 17.0425 111.877 25 1007 60 4 26
1973320N05142 1973 124 WP MM VERA 1973-11-26 00:00:00 TS 17.4444 111.644 1010 tokyo main 193 184 OOOO_____OOO__ jtwc_wp WP231973 17.2000 111.900 25 -1 18.2000 111.200 2 1010 0 0 0 17.6000 111.600 1 29 1002 17.7000 111.000 TD 25 1010 17.2000 111.900 TC 25 17.2000 111.900 1 25 17.2000 111.900 25 1010 60 3 40
1973320N05142 1973 124 WP MM VERA 1973-11-26 03:00:00 TS 17.5598 111.746 main 184 184 PPPP_____PPP__ WP231973 17.3999 111.898 22 -1 18.2200 111.375 2 1010 0 0 17.6999 111.748 1 26 1003 17.7573 111.220 TD 25 1010 17.3999 111.898 TC 22 17.3717 112.000 1 23 17.3999 111.898 22 1010 60 4 52
1973320N05142 1973 124 WP MM VERA 1973-11-26 06:00:00 TS 17.6652 111.943 1010 tokyo main 192 192 OOOO_____OPO__ jtwc_wp WP231973 17.6000 112.000 20 -1 18.1000 111.500 2 1010 0 0 0 17.8000 112.000 1 23 1004 17.8000 111.500 TD 25 1010 17.6000 112.000 TC 20 17.5497 112.172 1 22 17.6000 112.000 20 1010 60 6 67
1973320N05142 1973 124 WP MM VERA 1973-11-26 09:00:00 TS 17.7862 112.296 main 220 220 P_PP_____PPP__ WP231973 17.7576 112.305 20 -1 2 0 0 17.9379 112.405 1 21 1006 17.9229 111.910 TD 25 1010 17.7576 112.305 TC 20 17.7279 112.409 1 21 17.7576 112.305 20 1010 60 8 70
1973320N05142 1973 124 WP MM VERA 1973-11-26 12:00:00 TS 17.9222 112.694 main 253 253 O_OO_____OOO__ jtwc_wp WP231973 17.9000 112.700 20 -1 18.1000 112.900 0 19 1008 18.1000 112.400 TD 25 1010 17.9000 112.700 TC 20 17.9000 112.700 1 20 17.9000 112.700 20 1010 60 8 69
1973320N05142 1973 124 WP MM VERA 1973-11-26 15:00:00 TS 18.0578 113.035 main 269 269 P________PPP__ WP231973 18.0499 113.043 20 -1 0 TD 18.0499 113.043 TC 20 18.0816 113.012 1 20 18.0499 113.043 20 60 7 66
1973320N05142 1973 124 WP MM VERA 1973-11-26 18:00:00 TS 18.2131 113.394 main 297 297 O________OPO__ jtwc_wp WP231973 18.2000 113.400 20 -1 18.2000 113.400 TC 20 18.2524 113.375 1 20 18.2000 113.400 20 60 8 66
1973320N05142 1973 124 WP MM VERA 1973-11-26 21:00:00 TS 18.3786 113.782 main 323 323 P________PPP__ WP231973 18.3724 113.785 20 -1 18.3724 113.785 TC 20 18.3971 113.775 1 20 18.3724 113.785 20 60 8 69
1973320N05142 1973 124 WP MM VERA 1973-11-27 00:00:00 TS 18.5000 114.200 main 358 358 O________OOO__ jtwc_wp WP231973 18.5000 114.200 20 -1 18.5000 114.200 TC 20 18.5000 114.200 1 20 18.5000 114.200 20 60 8 80
1973320N05142 1973 124 WP MM VERA 1973-11-27 03:00:00 TS 18.5295 114.642 main 397 397 P________PPP__ WP231973 18.5224 114.643 20 -1 18.5224 114.643 TC 20 18.5507 114.639 1 20 18.5224 114.643 20 60 9 89
1973320N05142 1973 124 WP MM VERA 1973-11-27 06:00:00 TS 18.5146 115.097 main 433 433 O________OPO__ jtwc_wp WP231973 18.5000 115.100 20 -1 18.5000 115.100 TC 20 18.5583 115.088 1 20 18.5000 115.100 20 60 9 92
1973320N05142 1973 124 WP MM VERA 1973-11-27 09:00:00 TS 18.5037 115.550 main 442 442 P________PPP__ WP231973 18.4927 115.552 20 -1 18.4927 115.552 TC 20 18.5367 115.543 1 20 18.4927 115.552 20 60 9 91
1973320N05142 1973 124 WP MM VERA 1973-11-27 12:00:00 TS 18.5000 116.000 main 460 O________OOO__ jtwc_wp WP231973 18.5000 116.000 20 -1 18.5000 116.000 TC 20 18.5000 116.000 1 20 18.5000 116.000 20 60 9 90

デジタル台風データ・検索

IBTrACS Databaseについて

本データベースは、米国NOAAが公開する1842年以降の世界の熱帯低気圧のベストトラックデータアーカイブInternational Best Track Archive for Climate Stewardship (IBTrACS)を、ウェブで閲覧しやすい形式に変換したものです。

最終更新日:2021-11-26